createdAt,value
2018-04-01T00:00:06.633Z,0.00
2018-04-01T00:01:06.657Z,0.00
2018-04-01T00:02:06.678Z,0.00
2018-04-01T00:03:06.697Z,0.00
2018-04-01T00:04:06.715Z,0.00
2018-04-01T00:05:06.732Z,0.00
2018-04-01T00:06:06.740Z,0.00
2018-04-01T00:07:06.767Z,0.00
2018-04-01T00:08:06.782Z,0.00
2018-04-01T00:09:06.810Z,0.00
2018-04-01T00:10:06.832Z,0.00
2018-04-01T00:11:06.833Z,0.00
2018-04-01T00:12:06.865Z,0.00
2018-04-01T00:13:06.873Z,0.00
2018-04-01T00:14:06.900Z,0.00
2018-04-01T00:15:06.911Z,0.00
2018-04-01T00:16:06.928Z,0.00
2018-04-01T00:17:06.944Z,0.00
2018-04-01T00:18:06.987Z,0.00
2018-04-01T00:19:06.993Z,0.00
2018-04-01T00:20:06.999Z,0.00
2018-04-01T00:21:07.019Z,0.00
2018-04-01T00:22:07.047Z,0.00
2018-04-01T00:23:07.061Z,0.00
2018-04-01T00:24:07.072Z,0.00
2018-04-01T00:25:07.092Z,0.00
2018-04-01T00:26:07.111Z,0.00
2018-04-01T00:27:07.139Z,0.00
2018-04-01T00:28:07.155Z,0.00
2018-04-01T00:29:07.166Z,0.00
2018-04-01T00:30:07.183Z,0.00
2018-04-01T00:31:07.204Z,0.00
2018-04-01T00:32:07.224Z,0.00
2018-04-01T00:33:07.237Z,0.00
2018-04-01T00:34:07.283Z,0.00
2018-04-01T00:35:07.271Z,0.00
2018-04-01T00:36:07.298Z,0.00
2018-04-01T00:37:07.323Z,0.00
2018-04-01T00:38:07.331Z,0.00
2018-04-01T00:39:07.348Z,0.00
2018-04-01T00:40:07.372Z,0.00
2018-04-01T00:41:07.387Z,0.00
2018-04-01T00:42:07.408Z,0.00
2018-04-01T00:43:07.423Z,0.00
2018-04-01T00:44:07.450Z,0.00
2018-04-01T00:45:07.462Z,0.00
2018-04-01T00:46:07.475Z,0.00
2018-04-01T00:47:07.498Z,0.00
2018-04-01T00:48:07.511Z,0.00
2018-04-01T00:49:07.528Z,0.00
2018-04-01T00:50:07.551Z,0.00
2018-04-01T00:51:07.566Z,0.00
2018-04-01T00:52:07.587Z,0.00
2018-04-01T00:53:07.612Z,0.00
2018-04-01T00:54:07.621Z,0.00
2018-04-01T00:55:07.635Z,0.00
2018-04-01T00:56:07.656Z,0.00
2018-04-01T00:57:07.676Z,0.00
2018-04-01T00:58:07.690Z,0.00
2018-04-01T00:59:07.714Z,0.00
2018-04-01T01:00:07.735Z,0.00
2018-04-01T01:01:07.748Z,0.00
2018-04-01T01:02:07.771Z,0.00
2018-04-01T01:03:07.786Z,0.00
2018-04-01T01:04:07.801Z,0.00
2018-04-01T01:05:07.819Z,0.00
2018-04-01T01:06:07.838Z,0.00
2018-04-01T01:07:07.872Z,0.00
2018-04-01T01:08:07.871Z,0.00
2018-04-01T01:09:07.891Z,0.00
2018-04-01T01:10:07.911Z,0.00
2018-04-01T01:11:07.937Z,0.00
2018-04-01T01:12:07.947Z,0.00
2018-04-01T01:13:07.965Z,0.00
2018-04-01T01:14:07.986Z,0.00
2018-04-01T01:15:08.002Z,0.00
2018-04-01T01:16:08.019Z,0.00
2018-04-01T01:17:08.034Z,0.00
2018-04-01T01:18:08.052Z,0.00
2018-04-01T01:19:08.084Z,0.00
2018-04-01T01:20:08.099Z,0.00
2018-04-01T01:21:08.108Z,0.00
2018-04-01T01:22:08.123Z,0.00
2018-04-01T01:23:08.149Z,0.00
2018-04-01T01:24:08.163Z,0.00
2018-04-01T01:25:08.180Z,0.00
2018-04-01T01:26:08.194Z,0.00
2018-04-01T01:27:08.216Z,0.00
2018-04-01T01:28:08.251Z,0.00
2018-04-01T01:29:08.260Z,0.00
2018-04-01T01:30:08.267Z,0.00
2018-04-01T01:31:08.289Z,0.00
2018-04-01T01:32:08.304Z,0.00
2018-04-01T01:33:08.337Z,0.00
2018-04-01T01:34:08.341Z,0.00
2018-04-01T01:35:08.358Z,0.00
2018-04-01T01:36:08.377Z,0.00
2018-04-01T01:37:08.418Z,0.00
2018-04-01T01:38:08.415Z,0.00
2018-04-01T01:39:08.434Z,0.00
2018-04-01T01:40:08.455Z,0.00
2018-04-01T01:41:08.471Z,0.00
2018-04-01T01:42:08.486Z,0.00
2018-04-01T01:43:08.505Z,0.00
2018-04-01T01:44:08.529Z,0.00
2018-04-01T01:45:08.536Z,0.00
2018-04-01T01:46:08.556Z,0.00
2018-04-01T01:47:08.584Z,0.00
2018-04-01T01:48:08.599Z,0.00
2018-04-01T01:49:08.621Z,0.00
2018-04-01T01:50:08.632Z,0.00
2018-04-01T01:51:08.669Z,0.00
2018-04-01T01:52:08.665Z,0.00
2018-04-01T01:53:08.726Z,0.00
2018-04-01T01:54:08.704Z,0.00
2018-04-01T01:55:08.723Z,0.00
2018-04-01T01:56:08.781Z,0.00
2018-04-01T01:57:08.763Z,0.00
2018-04-01T01:58:08.778Z,0.00
2018-04-01T01:59:08.800Z,0.00
2018-04-01T02:00:08.819Z,0.00
2018-04-01T02:01:08.829Z,0.00
2018-04-01T02:02:08.846Z,0.00
2018-04-01T02:03:08.865Z,0.00
2018-04-01T02:04:08.903Z,0.00
2018-04-01T02:05:08.914Z,0.00
2018-04-01T02:06:08.920Z,0.00
2018-04-01T02:07:08.939Z,0.00
2018-04-01T02:08:09.024Z,0.00
2018-04-01T02:09:08.973Z,0.00
2018-04-01T02:10:08.994Z,0.00
2018-04-01T02:11:09.005Z,0.00
2018-04-01T02:12:09.026Z,0.00
2018-04-01T02:13:09.045Z,0.00
2018-04-01T02:14:09.064Z,0.00
2018-04-01T02:15:09.084Z,0.00
2018-04-01T02:16:09.115Z,0.00
2018-04-01T02:17:09.128Z,0.00
2018-04-01T02:18:09.136Z,0.00
2018-04-01T02:19:09.151Z,0.00
2018-04-01T02:20:09.172Z,0.00
2018-04-01T02:21:09.181Z,0.00
2018-04-01T02:22:09.222Z,0.00
2018-04-01T02:23:09.240Z,0.00
2018-04-01T02:24:09.238Z,0.00
2018-04-01T02:25:09.256Z,0.00
2018-04-01T02:26:09.273Z,0.00
2018-04-01T02:27:09.300Z,0.00
2018-04-01T02:28:09.307Z,0.00
2018-04-01T02:29:09.318Z,0.00
2018-04-01T02:30:09.340Z,0.00
2018-04-01T02:31:09.385Z,0.00
2018-04-01T02:32:09.388Z,0.00
2018-04-01T02:33:09.413Z,0.00
2018-04-01T02:34:09.416Z,0.00
2018-04-01T02:35:09.468Z,0.00
2018-04-01T02:36:09.446Z,0.00
2018-04-01T02:37:09.462Z,0.00
2018-04-01T02:38:09.497Z,0.00
2018-04-01T02:39:09.500Z,0.00
2018-04-01T02:40:09.512Z,0.00
2018-04-01T02:41:09.530Z,0.00
2018-04-01T02:42:09.561Z,0.00
2018-04-01T02:43:09.569Z,0.00
2018-04-01T02:44:09.598Z,0.00
2018-04-01T02:45:09.597Z,0.00
2018-04-01T02:46:09.623Z,0.00
2018-04-01T02:47:09.652Z,0.00
2018-04-01T02:48:09.704Z,0.00
2018-04-01T02:49:09.667Z,0.00
2018-04-01T02:50:09.684Z,0.00
2018-04-01T02:51:09.703Z,0.00
2018-04-01T02:52:09.720Z,0.00
2018-04-01T02:53:09.735Z,0.00
2018-04-01T02:54:09.809Z,0.00
2018-04-01T02:55:09.792Z,0.00
2018-04-01T02:56:09.802Z,0.00
2018-04-01T02:57:09.802Z,0.00
2018-04-01T02:58:09.832Z,0.00
2018-04-01T02:59:09.842Z,0.00
2018-04-01T03:00:09.854Z,0.00
2018-04-01T03:01:09.877Z,0.00
2018-04-01T03:02:09.887Z,0.00
2018-04-01T03:03:09.911Z,0.00
2018-04-01T03:04:09.932Z,0.00
2018-04-01T03:05:09.946Z,0.00
2018-04-01T03:06:09.961Z,0.00
2018-04-01T03:07:09.976Z,0.00
2018-04-01T03:08:09.995Z,0.00
2018-04-01T03:09:10.124Z,0.00
2018-04-01T03:10:10.032Z,0.00
2018-04-01T03:11:10.103Z,0.00
2018-04-01T03:12:10.065Z,0.00
2018-04-01T03:13:10.078Z,0.00
2018-04-01T03:14:10.102Z,0.00
2018-04-01T03:15:10.127Z,0.00
2018-04-01T03:16:10.129Z,0.00
2018-04-01T03:17:10.145Z,0.00
2018-04-01T03:18:10.177Z,0.00
2018-04-01T03:19:10.190Z,0.00
2018-04-01T03:20:10.201Z,0.00
2018-04-01T03:21:10.305Z,0.00
2018-04-01T03:22:10.235Z,0.00
2018-04-01T03:23:10.254Z,0.00
2018-04-01T03:24:10.266Z,0.00
2018-04-01T03:25:10.285Z,0.00
2018-04-01T03:26:10.305Z,0.00
2018-04-01T03:27:10.321Z,0.00
2018-04-01T03:28:10.340Z,0.00
2018-04-01T03:29:10.367Z,0.00
2018-04-01T03:30:10.375Z,0.00
2018-04-01T03:31:10.390Z,0.00
2018-04-01T03:32:10.412Z,0.00
2018-04-01T03:33:10.424Z,0.00
2018-04-01T03:34:10.441Z,0.00
2018-04-01T03:35:10.469Z,0.00
2018-04-01T03:36:10.477Z,0.00
2018-04-01T03:37:10.491Z,0.00
2018-04-01T03:38:10.516Z,0.00
2018-04-01T03:39:10.550Z,0.00
2018-04-01T03:40:10.544Z,0.00
2018-04-01T03:41:10.565Z,0.00
2018-04-01T03:42:10.583Z,0.00
2018-04-01T03:43:10.595Z,0.00
2018-04-01T03:44:10.634Z,0.00
2018-04-01T03:45:10.639Z,0.00
2018-04-01T03:46:10.647Z,0.00
2018-04-01T03:47:10.664Z,0.00
2018-04-01T03:48:10.694Z,0.00
2018-04-01T03:49:10.716Z,0.00
2018-04-01T03:50:10.730Z,0.00
2018-04-01T03:51:10.733Z,0.00
2018-04-01T03:52:10.751Z,0.00
2018-04-01T03:53:10.772Z,0.00
2018-04-01T03:54:10.794Z,0.00
2018-04-01T03:55:10.817Z,0.00
2018-04-01T03:56:10.830Z,0.00
2018-04-01T03:57:10.836Z,0.00
2018-04-01T03:58:10.861Z,0.00
2018-04-01T03:59:10.884Z,0.00
2018-04-01T04:00:10.903Z,0.00
2018-04-01T04:01:10.917Z,0.00
2018-04-01T04:02:10.935Z,0.00
2018-04-01T04:03:10.950Z,0.00
2018-04-01T04:04:10.967Z,0.00
2018-04-01T04:05:10.983Z,0.00
2018-04-01T04:06:11.006Z,0.00
2018-04-01T04:07:11.017Z,0.00
2018-04-01T04:08:11.037Z,0.00
2018-04-01T04:09:11.078Z,0.00
2018-04-01T04:10:11.089Z,0.00
2018-04-01T04:11:11.087Z,0.00
2018-04-01T04:12:11.115Z,0.00
2018-04-01T04:13:11.119Z,0.00
2018-04-01T04:14:11.139Z,0.00
2018-04-01T04:15:11.157Z,0.00
2018-04-01T04:16:11.167Z,0.00
2018-04-01T04:17:11.218Z,0.00
2018-04-01T04:18:11.201Z,0.00
2018-04-01T04:19:11.225Z,0.00
2018-04-01T04:20:11.268Z,0.00
2018-04-01T04:21:11.259Z,0.00
2018-04-01T04:22:11.295Z,0.00
2018-04-01T04:23:11.292Z,0.00
2018-04-01T04:24:11.317Z,0.00
2018-04-01T04:25:11.325Z,0.00
2018-04-01T04:26:11.431Z,0.00
2018-04-01T04:27:11.372Z,0.00
2018-04-01T04:28:11.423Z,0.00
2018-04-01T04:29:11.396Z,0.00
2018-04-01T04:30:11.417Z,0.00
2018-04-01T04:31:11.437Z,0.00
2018-04-01T04:32:11.446Z,0.00
2018-04-01T04:33:11.464Z,0.00
2018-04-01T04:34:11.512Z,0.00
2018-04-01T04:35:11.500Z,0.00
2018-04-01T04:36:11.521Z,0.00
2018-04-01T04:37:11.537Z,0.00
2018-04-01T04:38:11.547Z,0.00
2018-04-01T04:39:11.575Z,0.00
2018-04-01T04:40:11.585Z,0.00
2018-04-01T04:41:11.601Z,0.00
2018-04-01T04:42:11.618Z,0.00
2018-04-01T04:43:11.636Z,0.00
2018-04-01T04:44:11.660Z,0.00
2018-04-01T04:45:11.672Z,0.00
2018-04-01T04:46:11.694Z,0.00
2018-04-01T04:47:11.711Z,0.00
2018-04-01T04:48:11.726Z,0.00
2018-04-01T04:49:11.738Z,0.00
2018-04-01T04:50:11.756Z,0.00
2018-04-01T04:51:11.786Z,0.00
2018-04-01T04:52:11.792Z,0.00
2018-04-01T04:53:11.813Z,0.00
2018-04-01T04:54:11.826Z,0.00
2018-04-01T04:55:11.849Z,0.00
2018-04-01T04:56:11.861Z,0.00
2018-04-01T04:57:11.877Z,0.00
2018-04-01T04:58:11.898Z,0.00
2018-04-01T04:59:11.915Z,0.00
2018-04-01T05:00:11.928Z,0.00
2018-04-01T05:01:11.945Z,0.00
2018-04-01T05:02:11.968Z,0.00
2018-04-01T05:03:11.982Z,0.00
2018-04-01T05:04:12.007Z,0.00
2018-04-01T05:05:12.019Z,0.00
2018-04-01T05:06:12.091Z,0.00
2018-04-01T05:07:12.054Z,0.00
2018-04-01T05:08:12.077Z,0.00
2018-04-01T05:09:12.088Z,0.00
2018-04-01T05:10:12.103Z,0.00
2018-04-01T05:11:12.130Z,0.00
2018-04-01T05:12:12.137Z,0.00
2018-04-01T05:13:12.155Z,0.00
2018-04-01T05:14:12.169Z,0.00
2018-04-01T05:15:12.198Z,0.00
2018-04-01T05:16:12.205Z,0.00
2018-04-01T05:17:12.229Z,0.00
2018-04-01T05:18:12.266Z,0.00
2018-04-01T05:19:12.255Z,0.00
2018-04-01T05:20:12.273Z,0.00
2018-04-01T05:21:12.298Z,0.00
2018-04-01T05:22:12.326Z,0.00
2018-04-01T05:23:12.329Z,0.00
2018-04-01T05:24:12.344Z,0.00
2018-04-01T05:25:12.365Z,0.00
2018-04-01T05:26:12.376Z,0.00
2018-04-01T05:27:12.396Z,0.00
2018-04-01T05:28:12.415Z,0.00
2018-04-01T05:29:12.431Z,0.00
2018-04-01T05:30:12.448Z,0.00
2018-04-01T05:31:12.467Z,0.00
2018-04-01T05:32:12.496Z,0.00
2018-04-01T05:33:12.506Z,0.00
2018-04-01T05:34:12.521Z,0.00
2018-04-01T05:35:12.661Z,0.00
2018-04-01T05:36:12.556Z,0.00
2018-04-01T05:37:12.567Z,0.00
2018-04-01T05:38:12.589Z,0.00
2018-04-01T05:39:12.608Z,0.00
2018-04-01T05:40:12.621Z,0.00
2018-04-01T05:41:12.641Z,0.00
2018-04-01T05:42:12.656Z,0.00
2018-04-01T05:43:12.682Z,0.00
2018-04-01T05:44:12.717Z,0.00
2018-04-01T05:45:12.704Z,0.00
2018-04-01T05:46:12.756Z,0.00
2018-04-01T05:47:12.747Z,0.00
2018-04-01T05:48:12.760Z,0.00
2018-04-01T05:49:12.772Z,0.00
2018-04-01T05:50:12.791Z,0.00
2018-04-01T05:51:12.810Z,0.00
2018-04-01T05:52:12.838Z,0.00
2018-04-01T05:53:12.846Z,0.00
2018-04-01T05:54:12.868Z,0.00
2018-04-01T05:55:12.881Z,0.00
2018-04-01T05:56:12.897Z,0.00
2018-04-01T05:57:12.912Z,0.00
2018-04-01T05:58:12.930Z,0.00
2018-04-01T05:59:12.950Z,0.00
2018-04-01T06:00:12.968Z,0.00
2018-04-01T06:01:12.981Z,0.00
2018-04-01T06:02:13.005Z,0.00
2018-04-01T06:03:13.024Z,0.00
2018-04-01T06:04:13.036Z,0.00
2018-04-01T06:05:13.053Z,0.00
2018-04-01T06:06:13.071Z,0.00
2018-04-01T06:07:13.088Z,0.00
2018-04-01T06:08:13.101Z,0.00
2018-04-01T06:09:13.120Z,0.00
2018-04-01T06:10:13.140Z,0.00
2018-04-01T06:11:13.170Z,0.00
2018-04-01T06:12:13.257Z,0.00
2018-04-01T06:13:13.187Z,0.00
2018-04-01T06:14:13.218Z,0.00
2018-04-01T06:15:13.224Z,0.00
2018-04-01T06:16:13.242Z,0.00
2018-04-01T06:17:13.258Z,0.00
2018-04-01T06:18:13.277Z,0.00
2018-04-01T06:19:13.298Z,0.00
2018-04-01T06:20:13.313Z,0.00
2018-04-01T06:21:13.332Z,0.00
2018-04-01T06:22:13.346Z,0.00
2018-04-01T06:23:13.359Z,0.00
2018-04-01T06:24:13.394Z,0.00
2018-04-01T06:25:13.398Z,0.00
2018-04-01T06:26:13.414Z,0.00
2018-04-01T06:27:13.435Z,0.00
2018-04-01T06:28:13.453Z,0.00
2018-04-01T06:29:13.481Z,0.00
2018-04-01T06:30:13.480Z,0.00
2018-04-01T06:31:13.497Z,0.00
2018-04-01T06:32:13.524Z,0.00
2018-04-01T06:33:13.546Z,0.00
2018-04-01T06:34:13.552Z,0.00
2018-04-01T06:35:13.571Z,0.00
2018-04-01T06:36:13.609Z,0.00
2018-04-01T06:37:13.612Z,0.00
2018-04-01T06:38:13.626Z,0.00
2018-04-01T06:39:13.649Z,0.00
2018-04-01T06:40:13.675Z,0.00
2018-04-01T06:41:13.681Z,0.00
2018-04-01T06:42:13.701Z,0.00
2018-04-01T06:43:13.726Z,0.00
2018-04-01T06:44:13.752Z,0.00
2018-04-01T06:45:13.745Z,0.00
2018-04-01T06:46:13.765Z,0.00
2018-04-01T06:47:13.777Z,0.00
2018-04-01T06:48:13.807Z,0.00
2018-04-01T06:49:13.813Z,0.00
2018-04-01T06:50:13.836Z,0.00
2018-04-01T06:51:13.852Z,0.00
2018-04-01T06:52:13.866Z,0.00
2018-04-01T06:53:13.887Z,0.00
2018-04-01T06:54:13.906Z,0.00
2018-04-01T06:55:13.918Z,5.63
2018-04-01T06:56:13.934Z,5.63
2018-04-01T06:57:13.950Z,5.63
2018-04-01T06:58:14.139Z,5.63
2018-04-01T06:59:13.998Z,5.63
2018-04-01T07:00:14.007Z,5.63
2018-04-01T07:01:14.021Z,5.63
2018-04-01T07:02:14.045Z,5.63
2018-04-01T07:03:14.057Z,5.63
2018-04-01T07:04:14.080Z,5.63
2018-04-01T07:05:14.090Z,5.63
2018-04-01T07:06:14.111Z,5.63
2018-04-01T07:07:14.122Z,5.63
2018-04-01T07:08:14.148Z,5.63
2018-04-01T07:09:14.162Z,5.63
2018-04-01T07:10:14.180Z,5.63
2018-04-01T07:11:14.190Z,5.63
2018-04-01T07:12:14.342Z,5.63
2018-04-01T07:13:14.230Z,5.63
2018-04-01T07:14:14.245Z,5.63
2018-04-01T07:15:14.266Z,0.00
2018-04-01T07:16:14.281Z,0.00
2018-04-01T07:17:14.298Z,0.00
2018-04-01T07:18:14.320Z,0.00
2018-04-01T07:19:14.332Z,0.00
2018-04-01T07:20:14.356Z,0.00
2018-04-01T07:21:14.367Z,0.00
2018-04-01T07:22:14.382Z,0.00
2018-04-01T07:23:14.402Z,0.00
2018-04-01T07:24:14.425Z,0.00
2018-04-01T07:25:14.436Z,5.63
2018-04-01T07:26:14.453Z,5.63
2018-04-01T07:27:14.477Z,5.63
2018-04-01T07:28:14.489Z,5.63
2018-04-01T07:29:14.505Z,5.63
2018-04-01T07:30:14.555Z,0.00
2018-04-01T07:31:14.544Z,0.00
2018-04-01T07:32:14.571Z,0.00
2018-04-01T07:33:14.576Z,0.00
2018-04-01T07:34:14.594Z,0.00
2018-04-01T07:35:14.613Z,0.00
2018-04-01T07:36:14.636Z,0.00
2018-04-01T07:37:14.650Z,0.00
2018-04-01T07:38:14.664Z,0.00
2018-04-01T07:39:14.679Z,0.00
2018-04-01T07:40:14.697Z,0.00
2018-04-01T07:41:14.818Z,0.00
2018-04-01T07:42:14.735Z,0.00
2018-04-01T07:43:14.749Z,0.00
2018-04-01T07:44:14.767Z,0.00
2018-04-01T07:45:14.790Z,0.00
2018-04-01T07:46:14.812Z,0.00
2018-04-01T07:47:14.822Z,0.00
2018-04-01T07:48:14.846Z,0.00
2018-04-01T07:49:14.876Z,0.00
2018-04-01T07:50:14.877Z,0.00
2018-04-01T07:51:14.891Z,0.00
2018-04-01T07:52:14.909Z,0.00
2018-04-01T07:53:14.923Z,0.00
2018-04-01T07:54:14.939Z,0.00
2018-04-01T07:55:14.960Z,0.00
2018-04-01T07:56:14.981Z,0.00
2018-04-01T07:57:14.991Z,0.00
2018-04-01T07:58:15.008Z,0.00
2018-04-01T07:59:15.022Z,0.00
2018-04-01T08:00:15.040Z,0.00
2018-04-01T08:01:15.131Z,0.00
2018-04-01T08:02:15.068Z,0.00
2018-04-01T08:03:15.086Z,0.00
2018-04-01T08:04:15.101Z,0.00
2018-04-01T08:05:15.121Z,5.63
2018-04-01T08:06:15.193Z,5.63
2018-04-01T08:07:15.187Z,5.63
2018-04-01T08:08:15.169Z,5.63
2018-04-01T08:09:15.185Z,5.63
2018-04-01T08:10:15.202Z,5.63
2018-04-01T08:11:15.218Z,5.63
2018-04-01T08:12:15.244Z,5.63
2018-04-01T08:13:15.265Z,5.63
2018-04-01T08:14:15.266Z,5.63
2018-04-01T08:15:15.291Z,5.63
2018-04-01T08:16:15.306Z,5.63
2018-04-01T08:17:15.322Z,5.63
2018-04-01T08:18:15.336Z,5.63
2018-04-01T08:19:15.352Z,5.63
2018-04-01T08:20:15.379Z,11.25
2018-04-01T08:21:15.384Z,11.25
2018-04-01T08:22:15.403Z,11.25
2018-04-01T08:23:15.438Z,11.25
2018-04-01T08:24:15.437Z,11.25
2018-04-01T08:25:15.611Z,11.25
2018-04-01T08:26:15.465Z,5.63
2018-04-01T08:27:15.498Z,5.63
2018-04-01T08:28:15.502Z,5.63
2018-04-01T08:29:15.516Z,5.63
2018-04-01T08:30:15.530Z,5.63
2018-04-01T08:31:15.556Z,5.63
2018-04-01T08:32:15.580Z,5.63
2018-04-01T08:33:15.585Z,5.63
2018-04-01T08:34:15.625Z,5.63
2018-04-01T08:35:15.618Z,5.63
2018-04-01T08:36:15.635Z,5.63
2018-04-01T08:37:15.649Z,5.63
2018-04-01T08:38:15.684Z,5.63
2018-04-01T08:39:15.701Z,5.63
2018-04-01T08:40:15.708Z,5.63
2018-04-01T08:41:15.717Z,5.63
2018-04-01T08:42:15.737Z,0.00
2018-04-01T08:43:15.754Z,0.00
2018-04-01T08:44:15.769Z,0.00
2018-04-01T08:45:15.791Z,0.00
2018-04-01T08:46:15.808Z,0.00
2018-04-01T08:47:15.823Z,0.00
2018-04-01T08:48:15.837Z,0.00
2018-04-01T08:49:15.856Z,0.00
2018-04-01T08:50:15.878Z,5.63
2018-04-01T08:51:15.897Z,5.63
2018-04-01T08:52:15.919Z,5.63
2018-04-01T08:53:15.986Z,5.63
2018-04-01T08:54:15.943Z,5.63
2018-04-01T08:55:15.959Z,11.25
2018-04-01T08:56:15.986Z,11.25
2018-04-01T08:57:15.993Z,11.25
2018-04-01T08:58:16.018Z,11.25
2018-04-01T08:59:16.033Z,5.63
2018-04-01T09:00:16.077Z,5.63
2018-04-01T09:01:16.061Z,5.63
2018-04-01T09:02:16.084Z,5.63
2018-04-01T09:03:16.106Z,5.63
2018-04-01T09:04:16.121Z,5.63
2018-04-01T09:05:16.139Z,5.63
2018-04-01T09:06:16.157Z,5.63
2018-04-01T09:07:16.168Z,5.63
2018-04-01T09:08:16.179Z,5.63
2018-04-01T09:09:16.208Z,11.25
2018-04-01T09:10:16.238Z,11.25
2018-04-01T09:11:16.236Z,16.88
2018-04-01T09:12:16.251Z,16.88
2018-04-01T09:13:16.276Z,16.88
2018-04-01T09:14:16.283Z,11.25
2018-04-01T09:15:16.304Z,11.25
2018-04-01T09:16:16.328Z,5.63
2018-04-01T09:17:16.360Z,5.63
2018-04-01T09:18:16.374Z,5.63
2018-04-01T09:19:16.373Z,5.63
2018-04-01T09:20:16.393Z,11.25
2018-04-01T09:21:16.418Z,11.25
2018-04-01T09:22:16.487Z,11.25
2018-04-01T09:23:16.443Z,11.25
2018-04-01T09:24:16.460Z,11.25
2018-04-01T09:25:16.480Z,11.25
2018-04-01T09:26:16.508Z,11.25
2018-04-01T09:27:16.518Z,11.25
2018-04-01T09:28:16.531Z,11.25
2018-04-01T09:29:16.544Z,5.63
2018-04-01T09:30:16.560Z,11.25
2018-04-01T09:31:16.587Z,11.25
2018-04-01T09:32:16.598Z,16.88
2018-04-01T09:33:16.614Z,16.88
2018-04-01T09:34:16.636Z,11.25
2018-04-01T09:35:16.652Z,11.25
2018-04-01T09:36:16.674Z,11.25
2018-04-01T09:37:16.686Z,11.25
2018-04-01T09:38:16.733Z,5.63
2018-04-01T09:39:16.729Z,5.63
2018-04-01T09:40:16.759Z,5.63
2018-04-01T09:41:16.755Z,5.63
2018-04-01T09:42:16.781Z,5.63
2018-04-01T09:43:16.847Z,5.63
2018-04-01T09:44:16.808Z,5.63
2018-04-01T09:45:16.824Z,5.63
2018-04-01T09:46:16.837Z,0.00
2018-04-01T09:47:16.857Z,0.00
2018-04-01T09:48:16.875Z,0.00
2018-04-01T09:49:16.889Z,0.00
2018-04-01T09:50:16.917Z,0.00
2018-04-01T09:51:16.925Z,0.00
2018-04-01T09:52:16.940Z,0.00
2018-04-01T09:53:16.962Z,0.00
2018-04-01T09:54:16.983Z,0.00
2018-04-01T09:55:16.994Z,0.00
2018-04-01T09:56:17.031Z,0.00
2018-04-01T09:57:17.032Z,0.00
2018-04-01T09:58:17.055Z,5.63
2018-04-01T09:59:17.067Z,5.63
2018-04-01T10:00:17.084Z,11.25
2018-04-01T10:01:17.095Z,11.25
2018-04-01T10:02:17.140Z,11.25
2018-04-01T10:03:17.135Z,16.88
2018-04-01T10:04:17.150Z,16.88
2018-04-01T10:05:17.163Z,11.25
2018-04-01T10:06:17.193Z,16.88
2018-04-01T10:07:17.196Z,11.25
2018-04-01T10:08:17.213Z,11.25
2018-04-01T10:09:17.229Z,11.25
2018-04-01T10:10:17.246Z,11.25
2018-04-01T10:11:17.265Z,11.25
2018-04-01T10:12:17.327Z,16.88
2018-04-01T10:13:17.332Z,16.88
2018-04-01T10:14:17.325Z,16.88
2018-04-01T10:15:17.330Z,16.88
2018-04-01T10:16:17.356Z,16.88
2018-04-01T10:17:17.375Z,11.25
2018-04-01T10:18:17.379Z,11.25
2018-04-01T10:19:17.405Z,11.25
2018-04-01T10:20:17.466Z,11.25
2018-04-01T10:21:17.430Z,16.88
2018-04-01T10:22:17.451Z,11.25
2018-04-01T10:23:17.465Z,11.25
2018-04-01T10:24:17.490Z,11.25
2018-04-01T10:25:17.504Z,11.25
2018-04-01T10:26:17.512Z,11.25
2018-04-01T10:27:17.590Z,11.25
2018-04-01T10:28:17.556Z,11.25
2018-04-01T10:29:17.562Z,11.25
2018-04-01T10:30:17.593Z,11.25
2018-04-01T10:31:17.598Z,16.88
2018-04-01T10:32:17.627Z,16.88
2018-04-01T10:33:17.635Z,16.88
2018-04-01T10:34:17.651Z,16.88
2018-04-01T10:35:17.672Z,16.88
2018-04-01T10:36:17.687Z,16.88
2018-04-01T10:37:17.696Z,16.88
2018-04-01T10:38:17.712Z,16.88
2018-04-01T10:39:17.735Z,16.88
2018-04-01T10:40:17.749Z,16.88
2018-04-01T10:41:17.769Z,16.88
2018-04-01T10:42:17.784Z,16.88
2018-04-01T10:43:17.850Z,16.88
2018-04-01T10:44:17.822Z,16.88
2018-04-01T10:45:17.835Z,16.88
2018-04-01T10:46:17.900Z,16.88
2018-04-01T10:47:17.869Z,16.88
2018-04-01T10:48:17.884Z,22.50
2018-04-01T10:49:17.898Z,22.50
2018-04-01T10:50:17.915Z,22.50
2018-04-01T10:51:17.937Z,22.50
2018-04-01T10:52:17.950Z,22.50
2018-04-01T10:53:17.965Z,22.50
2018-04-01T10:54:17.996Z,16.88
2018-04-01T10:55:18.002Z,16.88
2018-04-01T10:56:18.030Z,16.88
2018-04-01T10:57:18.037Z,16.88
2018-04-01T10:58:18.064Z,16.88
2018-04-01T10:59:18.070Z,16.88
2018-04-01T11:00:18.086Z,16.88
2018-04-01T11:01:18.104Z,16.88
2018-04-01T11:02:18.124Z,16.88
2018-04-01T11:03:18.163Z,22.50
2018-04-01T11:04:18.157Z,22.50
2018-04-01T11:05:18.173Z,22.50
2018-04-01T11:06:18.190Z,22.50
2018-04-01T11:07:18.204Z,22.50
2018-04-01T11:08:18.231Z,22.50
2018-04-01T11:09:18.244Z,22.50
2018-04-01T11:10:18.259Z,22.50
2018-04-01T11:11:18.280Z,22.50
2018-04-01T11:12:18.293Z,28.13
2018-04-01T11:13:18.319Z,16.88
2018-04-01T11:14:18.334Z,16.88
2018-04-01T11:15:18.360Z,16.88
2018-04-01T11:16:18.365Z,16.88
2018-04-01T11:17:18.381Z,16.88
2018-04-01T11:18:18.401Z,16.88
2018-04-01T11:19:18.414Z,16.88
2018-04-01T11:20:18.433Z,16.88
2018-04-01T11:21:18.457Z,16.88
2018-04-01T11:22:18.465Z,16.88
2018-04-01T11:23:18.494Z,16.88
2018-04-01T11:24:18.505Z,16.88
2018-04-01T11:25:18.527Z,16.88
2018-04-01T11:26:18.542Z,16.88
2018-04-01T11:27:18.555Z,16.88
2018-04-01T11:28:18.661Z,16.88
2018-04-01T11:29:18.594Z,16.88
2018-04-01T11:30:18.608Z,16.88
2018-04-01T11:31:18.650Z,16.88
2018-04-01T11:32:18.645Z,16.88
2018-04-01T11:33:18.668Z,16.88
2018-04-01T11:34:18.682Z,16.88
2018-04-01T11:35:18.698Z,16.88
2018-04-01T11:36:18.711Z,16.88
2018-04-01T11:37:18.737Z,16.88
2018-04-01T11:38:18.752Z,11.25
2018-04-01T11:39:18.762Z,11.25
2018-04-01T11:40:18.787Z,11.25
2018-04-01T11:41:18.807Z,11.25
2018-04-01T11:42:18.828Z,11.25
2018-04-01T11:43:18.836Z,11.25
2018-04-01T11:44:18.852Z,11.25
2018-04-01T11:45:18.876Z,5.63
2018-04-01T11:46:18.885Z,5.63
2018-04-01T11:47:18.909Z,5.63
2018-04-01T11:48:18.924Z,5.63
2018-04-01T11:49:18.945Z,5.63
2018-04-01T11:50:18.959Z,5.63
2018-04-01T11:51:18.978Z,5.63
2018-04-01T11:52:19.002Z,5.63
2018-04-01T11:53:19.012Z,5.63
2018-04-01T11:54:19.053Z,0.00
2018-04-01T11:55:19.056Z,0.00
2018-04-01T11:56:19.065Z,0.00
2018-04-01T11:57:19.079Z,0.00
2018-04-01T11:58:19.099Z,0.00
2018-04-01T11:59:19.119Z,0.00
2018-04-01T12:00:19.141Z,5.63
2018-04-01T12:01:19.148Z,5.63
2018-04-01T12:02:19.172Z,5.63
2018-04-01T12:03:19.183Z,11.25
2018-04-01T12:04:19.200Z,11.25
2018-04-01T12:05:19.221Z,11.25
2018-04-01T12:06:19.240Z,11.25
2018-04-01T12:07:19.254Z,16.88
2018-04-01T12:08:19.273Z,16.88
2018-04-01T12:09:19.293Z,16.88
2018-04-01T12:10:19.316Z,16.88
2018-04-01T12:11:19.330Z,16.88
2018-04-01T12:12:19.347Z,16.88
2018-04-01T12:13:19.365Z,11.25
2018-04-01T12:14:19.405Z,16.88
2018-04-01T12:15:19.394Z,16.88
2018-04-01T12:16:19.565Z,22.50
2018-04-01T12:17:19.434Z,22.50
2018-04-01T12:18:19.489Z,28.13
2018-04-01T12:19:19.484Z,28.13
2018-04-01T12:20:19.483Z,33.75
2018-04-01T12:21:19.506Z,33.75
2018-04-01T12:22:19.514Z,28.13
2018-04-01T12:23:19.534Z,33.75
2018-04-01T12:24:19.553Z,45.00
2018-04-01T12:25:19.577Z,45.00
2018-04-01T12:26:19.589Z,39.38
2018-04-01T12:27:19.608Z,28.13
2018-04-01T12:28:19.627Z,33.75
2018-04-01T12:29:19.679Z,28.13
2018-04-01T12:30:19.666Z,28.13
2018-04-01T12:31:19.678Z,28.13
2018-04-01T12:32:19.714Z,22.50
2018-04-01T12:33:19.724Z,22.50
2018-04-01T12:34:19.730Z,22.50
2018-04-01T12:35:19.785Z,22.50
2018-04-01T12:36:19.778Z,16.88
2018-04-01T12:37:19.837Z,16.88
2018-04-01T12:38:19.807Z,16.88
2018-04-01T12:39:19.818Z,16.88
2018-04-01T12:40:19.836Z,16.88
2018-04-01T12:41:19.857Z,16.88
2018-04-01T12:42:19.882Z,11.25
2018-04-01T12:43:19.895Z,11.25
2018-04-01T12:44:19.910Z,11.25
2018-04-01T12:45:19.942Z,16.88
2018-04-01T12:46:19.986Z,16.88
2018-04-01T12:47:19.985Z,16.88
2018-04-01T12:48:19.990Z,16.88
2018-04-01T12:49:20.005Z,16.88
2018-04-01T12:50:20.020Z,11.25
2018-04-01T12:51:20.040Z,11.25
2018-04-01T12:52:20.057Z,16.88
2018-04-01T12:53:20.076Z,16.88
2018-04-01T12:54:20.090Z,16.88
2018-04-01T12:55:20.108Z,16.88
2018-04-01T12:56:20.133Z,11.25
2018-04-01T12:57:20.139Z,11.25
2018-04-01T12:58:20.163Z,11.25
2018-04-01T12:59:20.176Z,11.25
2018-04-01T13:00:20.198Z,11.25
2018-04-01T13:01:20.217Z,11.25
2018-04-01T13:02:20.232Z,11.25
2018-04-01T13:03:20.263Z,11.25
2018-04-01T13:04:20.270Z,11.25
2018-04-01T13:05:20.282Z,16.88
2018-04-01T13:06:20.306Z,16.88
2018-04-01T13:07:20.320Z,16.88
2018-04-01T13:08:20.338Z,22.50
2018-04-01T13:09:20.361Z,22.50
2018-04-01T13:10:20.387Z,16.88
2018-04-01T13:11:20.391Z,16.88